Time;durP1;ratioP1;P1;durP2;ratioP2;P2;SDS_P1;SDS_P2;PMS_P1;PMS_P2;Temp;Humidity;BMP_temperature;BMP_pressure;BME280_temperature;BME280_humidity;BME280_pressure;Samples;Min_cycle;Max_cycle;Signal;HPM_P1;HPM_P2
2023/07/14 00:00:19;;;;;;;4.32;3.40;;;19.20;76.30;;;;;;5054825;28;20029;-68
2023/07/14 00:02:47;;;;;;;4.60;3.83;;;19.20;76.30;;;;;;5038038;28;20029;-68
2023/07/14 00:05:19;;;;;;;4.40;3.30;;;19.20;76.30;;;;;;5037556;28;20021;-69
2023/07/14 00:07:46;;;;;;;5.10;2.97;;;19.20;76.30;;;;;;5049353;28;20041;-68
2023/07/14 00:10:30;;;;;;;4.75;3.10;;;19.30;76.10;;;;;;5049992;28;20021;-68
2023/07/14 00:12:58;;;;;;;4.55;3.15;;;19.30;76.10;;;;;;5049878;28;20041;-68
2023/07/14 00:15:24;;;;;;;4.13;3.17;;;19.30;76.00;;;;;;5049472;28;20024;-68
2023/07/14 00:17:53;;;;;;;4.72;3.95;;;19.30;75.90;;;;;;5049129;28;20603;-68
2023/07/14 00:20:29;;;;;;;5.45;3.97;;;19.30;76.20;;;;;;5032922;28;20067;-68
2023/07/14 00:22:55;;;;;;;5.45;3.85;;;19.20;76.50;;;;;;5053962;28;20466;-68
2023/07/14 00:25:23;;;;;;;4.72;3.70;;;19.20;76.60;;;;;;5061916;28;20083;-68
2023/07/14 00:27:54;;;;;;;5.90;4.03;;;19.20;76.70;;;;;;5067930;28;20106;-68
2023/07/14 00:30:23;;;;;;;6.25;3.80;;;19.20;76.90;;;;;;5045142;28;20087;-68
2023/07/14 00:32:50;;;;;;;5.10;3.80;;;19.20;76.90;;;;;;5054499;28;20467;-68
2023/07/14 00:35:24;;;;;;;7.15;3.50;;;19.20;77.00;;;;;;5044776;28;20391;-68
2023/07/14 00:37:51;;;;;;;5.32;3.58;;;19.20;76.90;;;;;;5053718;28;20048;-68
2023/07/14 00:40:22;;;;;;;4.38;3.33;;;19.20;76.60;;;;;;5053374;28;20480;-67
2023/07/14 00:42:53;;;;;;;3.63;3.10;;;19.20;76.50;;;;;;5053512;28;20021;-68
2023/07/14 00:45:21;;;;;;;4.97;3.28;;;19.30;76.40;;;;;;5053356;28;20032;-68
2023/07/14 00:47:52;;;;;;;4.25;3.33;;;19.30;76.30;;;;;;5053064;28;20017;-68
2023/07/14 00:50:46;;;;;;;5.67;3.60;;;19.30;76.20;;;;;;5052034;28;20590;-68
2023/07/14 00:53:20;;;;;;;5.05;3.30;;;19.30;76.20;;;;;;5059995;28;21151;-68
2023/07/14 00:55:48;;;;;;;4.78;3.03;;;19.30;76.20;;;;;;5053236;28;20031;-68
2023/07/14 00:58:20;;;;;;;5.03;3.42;;;19.30;76.10;;;;;;5052980;28;20433;-67
2023/07/14 01:01:08;;;;;;;6.15;3.50;;;19.30;76.10;;;;;;5053082;28;20017;-67
2023/07/14 01:03:39;;;;;;;5.35;3.25;;;19.30;76.30;;;;;;5052894;28;20263;-68
2023/07/14 01:06:12;;;;;;;6.80;2.88;;;19.30;76.20;;;;;;5053110;28;20017;-67
2023/07/14 01:08:57;;;;;;;3.83;3.25;;;19.20;76.20;;;;;;5051642;28;20025;-67
2023/07/14 01:11:31;;;;;;;3.83;2.72;;;19.20;76.30;;;;;;5052640;28;20075;-68
2023/07/14 01:14:00;;;;;;;4.07;2.90;;;19.10;76.20;;;;;;5043764;28;20025;-68
2023/07/14 01:16:28;;;;;;;4.40;3.08;;;19.10;76.30;;;;;;5048914;28;20029;-68
2023/07/14 01:18:54;;;;;;;4.95;2.88;;;19.10;76.20;;;;;;5052131;28;20041;-68
2023/07/14 01:21:23;;;;;;;3.53;2.67;;;19.10;76.10;;;;;;5052724;28;20369;-68
2023/07/14 01:23:58;;;;;;;3.92;2.92;;;19.10;76.20;;;;;;5033864;28;20021;-68
2023/07/14 01:26:38;;;;;;;4.32;3.47;;;19.10;76.30;;;;;;5051366;28;20494;-68
2023/07/14 01:29:03;;;;;;;4.00;2.92;;;19.00;76.40;;;;;;5052396;28;20104;-68
2023/07/14 01:31:30;;;;;;;7.88;3.90;;;19.00;76.70;;;;;;5052570;28;20104;-68
2023/07/14 01:33:56;;;;;;;4.15;2.90;;;18.90;77.10;;;;;;5045337;28;20028;-68
2023/07/14 01:36:23;;;;;;;5.05;3.00;;;18.90;77.30;;;;;;5052047;28;20094;-68
2023/07/14 01:38:50;;;;;;;3.42;2.45;;;18.90;77.30;;;;;;5052220;28;20039;-67
2023/07/14 01:41:16;;;;;;;4.00;2.80;;;18.90;77.10;;;;;;5052095;28;20108;-68
2023/07/14 01:43:43;;;;;;;5.88;3.15;;;18.90;77.00;;;;;;5051943;28;20112;-68
2023/07/14 01:46:15;;;;;;;5.05;2.88;;;18.90;77.00;;;;;;5054415;28;20025;-68
2023/07/14 01:48:59;;;;;;;4.55;3.20;;;18.90;77.00;;;;;;5064031;28;20050;-68
2023/07/14 01:51:31;;;;;;;5.47;3.10;;;18.90;77.10;;;;;;5060269;28;20020;-68
2023/07/14 01:54:26;;;;;;;3.75;2.55;;;18.90;77.10;;;;;;5051946;28;20178;-68
2023/07/14 01:56:54;;;;;;;4.32;2.85;;;18.80;77.20;;;;;;5048560;28;20104;-68
2023/07/14 01:59:30;;;;;;;4.25;2.90;;;18.80;77.20;;;;;;5052167;28;20021;-68
2023/07/14 02:01:59;;;;;;;3.65;3.00;;;18.80;77.30;;;;;;5051964;28;20772;-68
2023/07/14 02:04:36;;;;;;;4.03;3.00;;;18.70;77.20;;;;;;5050636;28;20052;-68
2023/07/14 02:07:02;;;;;;;5.95;2.75;;;18.70;77.50;;;;;;5052056;28;20492;-68
2023/07/14 02:09:30;;;;;;;5.57;2.88;;;18.70;77.50;;;;;;5052241;28;20056;-68
2023/07/14 02:12:04;;;;;;;5.13;3.03;;;18.70;77.50;;;;;;5051874;28;20036;-68
2023/07/14 02:14:59;;;;;;;3.58;2.58;;;18.70;77.70;;;;;;5051967;28;20082;-68
2023/07/14 02:17:30;;;;;;;4.35;3.05;;;18.60;78.00;;;;;;5051214;28;20048;-68
2023/07/14 02:19:57;;;;;;;4.32;2.92;;;18.60;78.60;;;;;;5051259;28;20091;-68
2023/07/14 02:22:24;;;;;;;3.72;2.70;;;18.60;78.10;;;;;;5050288;28;20082;-68
2023/07/14 02:24:50;;;;;;;5.28;2.85;;;18.50;78.20;;;;;;5066653;28;20028;-68
2023/07/14 02:27:15;;;;;;;3.33;2.53;;;18.50;78.20;;;;;;5052872;28;20033;-68
2023/07/14 02:29:41;;;;;;;4.30;2.67;;;18.50;78.20;;;;;;5050366;28;20082;-67
2023/07/14 02:32:29;;;;;;;5.45;2.85;;;18.40;78.40;;;;;;5050949;28;20424;-68
2023/07/14 02:35:18;;;;;;;4.38;2.58;;;18.40;78.20;;;;;;5050930;28;20140;-68
2023/07/14 02:40:59;;;;;;;3.95;2.58;;;18.40;78.50;;;;;;5049053;28;20514;-68
2023/07/14 02:43:24;;;;;;;4.47;2.80;;;18.40;78.50;;;;;;5054287;28;20053;-68
2023/07/14 02:45:58;;;;;;;4.70;3.17;;;18.40;78.50;;;;;;5040001;28;20628;-68
2023/07/14 02:48:38;;;;;;;3.28;2.55;;;18.40;78.70;;;;;;5046127;28;20028;-68
2023/07/14 02:51:04;;;;;;;4.43;2.70;;;18.40;79.30;;;;;;5050992;28;20495;-68
2023/07/14 02:53:29;;;;;;;4.72;3.45;;;18.40;78.60;;;;;;5050862;28;20033;-68
2023/07/14 02:55:55;;;;;;;3.33;2.78;;;18.40;78.60;;;;;;5049135;28;20048;-68
2023/07/14 02:58:21;;;;;;;4.07;2.70;;;18.40;78.70;;;;;;5049484;28;20029;-67
2023/07/14 03:00:47;;;;;;;5.47;2.90;;;18.40;78.70;;;;;;5058307;28;20488;-67
2023/07/14 03:03:13;;;;;;;4.00;2.70;;;18.40;78.60;;;;;;5049397;28;20031;-68
2023/07/14 03:05:38;;;;;;;4.10;3.25;;;18.50;78.70;;;;;;5048287;28;20021;-68
2023/07/14 03:08:08;;;;;;;4.57;2.95;;;18.50;78.70;;;;;;5050420;28;20048;-68
2023/07/14 03:10:34;;;;;;;4.82;2.78;;;18.50;78.90;;;;;;5032619;28;20025;-67
2023/07/14 03:13:00;;;;;;;4.50;3.00;;;18.50;79.00;;;;;;5050410;28;20021;-68
2023/07/14 03:15:25;;;;;;;5.05;3.15;;;18.50;79.20;;;;;;5049062;28;20549;-68
2023/07/14 03:17:51;;;;;;;3.38;2.65;;;18.50;79.20;;;;;;5046220;28;20032;-68
2023/07/14 03:20:17;;;;;;;3.65;2.90;;;18.50;79.10;;;;;;5050024;28;20033;-68
2023/07/14 03:22:43;;;;;;;4.75;3.50;;;18.50;79.20;;;;;;5041341;28;20452;-67
2023/07/14 03:25:09;;;;;;;3.53;2.60;;;18.40;79.40;;;;;;5047443;28;20033;-68
2023/07/14 03:27:35;;;;;;;4.35;3.20;;;18.40;79.50;;;;;;5047305;28;20024;-67
2023/07/14 03:30:00;;;;;;;5.35;3.78;;;18.30;79.70;;;;;;5043495;28;20116;-67
2023/07/14 03:32:27;;;;;;;6.07;4.00;;;18.30;80.00;;;;;;5050072;28;20033;-68
2023/07/14 03:34:52;;;;;;;3.90;3.20;;;18.20;80.30;;;;;;5050023;28;20029;-68
2023/07/14 03:37:18;;;;;;;5.78;3.80;;;18.10;80.60;;;;;;5053557;28;20526;-67
2023/07/14 03:39:44;;;;;;;5.05;3.80;;;18.10;80.80;;;;;;5059922;28;20029;-68
2023/07/14 03:42:10;;;;;;;5.30;3.95;;;18.00;81.10;;;;;;5059807;28;20487;-68
2023/07/14 03:44:35;;;;;;;5.43;3.90;;;18.00;81.30;;;;;;5055711;28;20100;-68
2023/07/14 03:47:02;;;;;;;5.55;3.88;;;17.90;81.50;;;;;;5046981;28;20021;-68
2023/07/14 03:49:28;;;;;;;5.72;3.97;;;17.90;81.70;;;;;;5047153;28;20025;-68
2023/07/14 03:51:54;;;;;;;6.88;4.80;;;17.90;81.90;;;;;;5052477;28;20021;-68
2023/07/14 03:54:20;;;;;;;6.43;3.83;;;17.80;82.20;;;;;;5053249;28;20376;-68
2023/07/14 03:56:45;;;;;;;5.70;4.00;;;17.80;82.40;;;;;;5052212;28;20029;-68
2023/07/14 03:59:13;;;;;;;5.85;3.95;;;17.80;82.30;;;;;;5046473;28;20017;-68
2023/07/14 04:01:39;;;;;;;6.38;4.20;;;17.90;82.30;;;;;;5054731;28;20037;-68
2023/07/14 04:04:05;;;;;;;6.40;4.32;;;17.90;82.30;;;;;;5054062;28;20118;-68
2023/07/14 04:06:30;;;;;;;5.57;4.15;;;17.80;82.40;;;;;;5044786;28;20140;-68
2023/07/14 04:08:59;;;;;;;5.28;4.00;;;17.80;82.50;;;;;;5045386;28;20064;-68
2023/07/14 04:11:25;;;;;;;6.65;4.80;;;17.90;82.50;;;;;;5048510;28;20086;-68
2023/07/14 04:13:50;;;;;;;6.28;4.72;;;17.90;82.70;;;;;;5056895;28;20124;-68
2023/07/14 04:16:16;;;;;;;6.10;4.85;;;17.90;83.00;;;;;;5049652;28;20052;-68
2023/07/14 04:18:42;;;;;;;6.13;4.40;;;17.80;83.10;;;;;;5055299;28;20056;-68
2023/07/14 04:21:12;;;;;;;7.38;4.78;;;17.80;83.30;;;;;;5069985;28;20070;-68
2023/07/14 04:23:39;;;;;;;5.30;4.32;;;17.80;83.50;;;;;;5069645;28;20025;-68
2023/07/14 04:26:07;;;;;;;6.00;4.50;;;17.80;83.50;;;;;;5070093;28;20021;-68
2023/07/14 04:28:34;;;;;;;7.50;5.82;;;17.80;83.50;;;;;;5063689;28;20024;-68
2023/07/14 04:31:03;;;;;;;5.90;4.78;;;17.80;83.70;;;;;;5050460;28;20116;-68
2023/07/14 04:33:29;;;;;;;7.40;4.85;;;17.80;83.70;;;;;;5041615;28;20029;-68
2023/07/14 04:35:56;;;;;;;6.70;4.80;;;17.90;83.60;;;;;;5049359;28;20021;-68
2023/07/14 04:38:23;;;;;;;6.43;4.65;;;17.90;83.50;;;;;;5054428;28;20025;-68
2023/07/14 04:40:49;;;;;;;6.80;4.47;;;18.00;83.40;;;;;;5071554;28;20024;-68
2023/07/14 04:43:16;;;;;;;7.25;4.97;;;18.00;83.20;;;;;;5050003;28;20029;-68
2023/07/14 04:45:44;;;;;;;5.93;4.18;;;18.10;83.20;;;;;;5048805;28;20052;-68
2023/07/14 04:48:13;;;;;;;5.80;4.50;;;18.10;83.00;;;;;;5046895;28;20622;-68
2023/07/14 04:50:39;;;;;;;5.13;4.07;;;18.10;82.90;;;;;;5043085;28;20044;-68
2023/07/14 04:53:06;;;;;;;5.82;4.90;;;18.20;82.80;;;;;;5049162;28;20504;-68
2023/07/14 04:55:35;;;;;;;6.60;4.20;;;18.30;82.50;;;;;;5049151;28;20078;-68
2023/07/14 04:58:01;;;;;;;5.80;4.72;;;18.30;82.30;;;;;;5049274;28;20036;-68
2023/07/14 05:00:26;;;;;;;7.40;5.35;;;18.40;82.30;;;;;;5049393;28;20029;-68
2023/07/14 05:02:52;;;;;;;7.53;4.53;;;18.50;82.10;;;;;;5049175;28;20076;-68
2023/07/14 05:05:20;;;;;;;5.35;4.40;;;18.70;81.90;;;;;;5050772;28;20020;-68
2023/07/14 05:07:48;;;;;;;4.70;3.80;;;19.00;80.70;;;;;;5051148;28;20092;-68
2023/07/14 05:10:14;;;;;;;5.05;4.35;;;19.30;79.90;;;;;;5043552;28;20622;-68
2023/07/14 05:12:40;;;;;;;5.50;4.68;;;19.40;79.20;;;;;;5051741;28;20020;-68
2023/07/14 05:15:10;;;;;;;5.18;3.60;;;19.50;78.50;;;;;;5052546;28;20029;-68
2023/07/14 05:17:39;;;;;;;4.60;3.90;;;19.50;78.40;;;;;;5050712;28;20017;-68
2023/07/14 05:20:06;;;;;;;5.20;3.80;;;19.70;77.90;;;;;;5048929;28;20121;-68
2023/07/14 05:22:32;;;;;;;10.23;6.25;;;19.80;77.90;;;;;;5052539;28;20025;-68
2023/07/14 05:24:58;;;;;;;7.82;4.75;;;20.20;76.20;;;;;;5050942;28;20399;-68
2023/07/14 05:27:24;;;;;;;9.65;5.28;;;20.20;75.90;;;;;;5052473;28;20021;-68
2023/07/14 05:29:50;;;;;;;6.60;4.90;;;20.10;75.70;;;;;;5052686;28;20344;-68
2023/07/14 05:32:16;;;;;;;5.97;4.45;;;20.00;75.50;;;;;;5052072;28;20071;-68
2023/07/14 05:34:42;;;;;;;7.45;5.05;;;19.80;76.00;;;;;;5052616;28;20108;-68
2023/07/14 05:37:08;;;;;;;7.53;5.50;;;19.60;76.70;;;;;;5049533;28;20594;-68
2023/07/14 05:39:34;;;;;;;7.10;4.85;;;19.60;76.80;;;;;;5051571;28;20094;-68
2023/07/14 05:42:03;;;;;;;6.43;4.97;;;19.80;77.00;;;;;;5050839;28;20032;-68
2023/07/14 05:44:29;;;;;;;5.95;4.53;;;20.20;75.50;;;;;;5039986;28;20027;-68
2023/07/14 05:46:55;;;;;;;8.38;5.53;;;20.00;75.60;;;;;;5048157;28;20032;-68
2023/07/14 05:49:21;;;;;;;6.70;4.50;;;19.80;75.80;;;;;;5044895;28;20029;-67
2023/07/14 05:51:46;;;;;;;6.15;4.47;;;20.10;75.90;;;;;;5042340;28;20396;-67
2023/07/14 05:54:12;;;;;;;7.15;4.93;;;21.10;73.50;;;;;;5037718;28;20095;-68
2023/07/14 05:56:38;;;;;;;6.07;4.38;;;21.20;72.10;;;;;;5039412;28;20033;-67
2023/07/14 05:59:03;;;;;;;8.10;5.22;;;20.90;72.20;;;;;;5048936;28;20105;-68
2023/07/14 06:01:29;;;;;;;5.72;4.45;;;20.80;71.70;;;;;;5032247;28;20029;-68
2023/07/14 06:03:55;;;;;;;5.53;3.97;;;20.90;72.30;;;;;;5050349;28;20005;-68
2023/07/14 06:06:21;;;;;;;6.15;4.20;;;21.10;71.50;;;;;;5047633;28;20049;-68
2023/07/14 06:08:49;;;;;;;6.30;4.28;;;21.00;71.60;;;;;;5052564;28;20365;-68
2023/07/14 06:11:15;;;;;;;5.03;3.88;;;21.50;71.30;;;;;;5051225;28;20511;-69
2023/07/14 06:13:41;;;;;;;4.53;3.60;;;22.10;69.70;;;;;;5051613;28;20021;-69
2023/07/14 06:16:06;;;;;;;4.88;3.30;;;22.40;68.50;;;;;;5051143;28;20048;-69
2023/07/14 06:18:32;;;;;;;4.72;3.45;;;22.30;68.60;;;;;;5026159;28;20031;-69
2023/07/14 06:20:58;;;;;;;6.72;3.70;;;22.40;68.30;;;;;;5051318;28;20017;-69
2023/07/14 06:23:26;;;;;;;5.93;4.05;;;22.50;67.90;;;;;;5050730;28;20039;-69
2023/07/14 06:25:52;;;;;;;5.85;3.65;;;22.50;66.70;;;;;;5050896;28;20444;-69
2023/07/14 06:28:18;;;;;;;5.18;3.25;;;22.50;66.30;;;;;;5050834;28;20024;-68
2023/07/14 06:30:43;;;;;;;5.15;3.20;;;22.70;66.20;;;;;;5050738;28;20498;-68
2023/07/14 06:33:09;;;;;;;7.05;3.47;;;22.80;65.80;;;;;;5050851;28;20037;-71
2023/07/14 06:35:35;;;;;;;5.47;3.33;;;22.50;65.30;;;;;;5049574;28;20356;-69
2023/07/14 06:38:01;;;;;;;4.50;3.38;;;22.50;65.80;;;;;;5048751;28;20056;-68
2023/07/14 06:40:27;;;;;;;6.70;3.20;;;22.50;65.50;;;;;;5050279;28;20052;-68
2023/07/14 06:42:55;;;;;;;6.55;4.20;;;22.30;65.60;;;;;;5050342;28;20152;-68
2023/07/14 06:45:21;;;;;;;5.22;3.60;;;22.20;65.00;;;;;;5032533;28;20702;-68
2023/07/14 06:47:47;;;;;;;6.53;3.70;;;21.90;65.30;;;;;;5049804;28;20021;-68
2023/07/14 06:50:12;;;;;;;6.07;3.28;;;21.80;64.90;;;;;;5039566;28;20029;-68
2023/07/14 06:52:38;;;;;;;5.15;3.30;;;21.60;65.40;;;;;;5052971;28;20099;-68
2023/07/14 06:55:05;;;;;;;5.85;3.55;;;21.50;65.70;;;;;;5052289;28;20100;-68
2023/07/14 06:57:32;;;;;;;7.15;3.50;;;21.60;66.00;;;;;;5032208;28;20377;-68
2023/07/14 06:59:58;;;;;;;6.32;3.88;;;21.70;65.90;;;;;;5050809;28;20043;-68
2023/07/14 07:02:24;;;;;;;4.70;2.95;;;21.80;66.00;;;;;;5054653;28;20099;-68
2023/07/14 07:04:49;;;;;;;7.45;3.95;;;22.00;65.80;;;;;;5048271;28;20031;-68
2023/07/14 07:07:15;;;;;;;6.57;4.13;;;22.30;65.40;;;;;;5048673;28;20020;-68
2023/07/14 07:09:41;;;;;;;6.78;3.33;;;22.40;64.60;;;;;;5049494;28;20057;-68
2023/07/14 07:12:09;;;;;;;6.50;4.50;;;22.30;64.50;;;;;;5050265;28;20434;-68
2023/07/14 07:14:35;;;;;;;5.72;3.60;;;22.20;64.10;;;;;;5047923;28;20112;-68
2023/07/14 07:17:01;;;;;;;6.40;3.65;;;22.10;64.70;;;;;;5052167;28;20036;-68
2023/07/14 07:19:26;;;;;;;8.02;3.92;;;22.20;64.80;;;;;;5047450;28;20036;-68
2023/07/14 07:21:54;;;;;;;7.28;4.57;;;22.40;64.70;;;;;;5044463;28;20480;-68
2023/07/14 07:24:20;;;;;;;5.85;4.00;;;22.40;64.60;;;;;;5044623;28;20065;-67
2023/07/14 07:26:45;;;;;;;7.28;4.60;;;22.40;64.10;;;;;;5043475;28;20025;-67
2023/07/14 07:29:11;;;;;;;8.00;5.22;;;22.20;63.90;;;;;;5048565;28;20082;-68
2023/07/14 07:31:36;;;;;;;6.75;4.32;;;21.90;63.80;;;;;;5047163;28;20115;-67
2023/07/14 07:34:03;;;;;;;6.00;3.90;;;21.80;64.40;;;;;;5046556;28;20111;-67
2023/07/14 07:36:30;;;;;;;5.75;3.60;;;21.80;64.90;;;;;;5046042;28;20075;-68
2023/07/14 07:38:56;;;;;;;5.80;3.58;;;22.00;64.70;;;;;;5030129;28;20450;-68
2023/07/14 07:41:25;;;;;;;5.78;3.60;;;22.30;64.50;;;;;;5049899;28;20052;-68
2023/07/14 07:43:52;;;;;;;3.85;3.15;;;22.30;63.50;;;;;;5047354;28;20025;-67
2023/07/14 07:46:21;;;;;;;6.88;3.75;;;22.50;63.80;;;;;;5046976;28;20092;-67
2023/07/14 07:48:47;;;;;;;4.00;2.92;;;22.50;62.40;;;;;;5048806;28;20365;-67
2023/07/14 07:51:13;;;;;;;5.35;3.03;;;22.40;62.80;;;;;;5045513;28;20039;-68
2023/07/14 07:53:39;;;;;;;3.80;2.60;;;22.40;62.20;;;;;;5046875;28;20025;-67
2023/07/14 07:56:05;;;;;;;5.20;2.45;;;22.40;62.30;;;;;;5044369;28;20078;-67
2023/07/14 07:58:30;;;;;;;3.00;2.03;;;22.50;62.10;;;;;;5047671;28;20048;-67
2023/07/14 08:01:03;;;;;;;3.33;2.08;;;22.70;61.80;;;;;;5045926;28;20028;-68
2023/07/14 08:03:29;;;;;;;4.40;2.83;;;22.70;61.10;;;;;;5048740;28;20040;-67
2023/07/14 08:06:05;;;;;;;4.88;2.33;;;22.80;60.10;;;;;;5047600;28;20353;-67
2023/07/14 08:08:31;;;;;;;5.72;2.58;;;22.90;60.40;;;;;;5044547;28;20407;-67
2023/07/14 08:10:57;;;;;;;5.32;2.92;;;23.00;59.80;;;;;;5047193;28;20053;-67
2023/07/14 08:13:25;;;;;;;3.53;2.10;;;23.00;58.80;;;;;;5045604;28;20290;-67
2023/07/14 08:15:54;;;;;;;4.30;2.30;;;23.00;59.20;;;;;;5047144;28;20387;-68
2023/07/14 08:18:21;;;;;;;4.72;2.40;;;23.00;59.10;;;;;;5048657;28;20399;-67
2023/07/14 08:20:49;;;;;;;3.92;2.17;;;23.00;58.70;;;;;;5046648;28;20021;-67
2023/07/14 08:23:19;;;;;;;2.88;2.00;;;23.00;58.60;;;;;;5049484;28;20024;-68
2023/07/14 08:26:01;;;;;;;4.07;2.00;;;23.00;58.40;;;;;;5045383;28;20063;-67
2023/07/14 08:28:28;;;;;;;2.92;1.95;;;23.00;58.50;;;;;;5046263;28;20119;-67
2023/07/14 08:30:55;;;;;;;4.95;2.35;;;23.00;58.50;;;;;;5048970;28;20040;-67
2023/07/14 08:33:23;;;;;;;4.10;2.45;;;23.00;58.60;;;;;;5047566;28;20639;-67
2023/07/14 08:35:49;;;;;;;2.97;2.00;;;22.90;58.30;;;;;;5046695;28;20139;-68
2023/07/14 08:38:15;;;;;;;3.50;2.22;;;23.10;58.50;;;;;;5047992;28;20114;-67
2023/07/14 08:40:48;;;;;;;2.97;2.17;;;23.20;57.70;;;;;;5041598;28;20500;-68
2023/07/14 08:43:40;;;;;;;3.80;2.30;;;23.00;57.00;;;;;;5052448;28;20020;-67
2023/07/14 08:46:12;;;;;;;4.88;2.40;;;23.00;57.30;;;;;;5051076;28;20021;-69
2023/07/14 08:48:41;;;;;;;4.07;2.03;;;23.10;56.50;;;;;;5050424;28;20013;-67
2023/07/14 08:51:13;;;;;;;3.47;1.95;;;23.00;56.70;;;;;;5053533;28;20372;-67
2023/07/14 08:53:40;;;;;;;4.82;2.42;;;23.20;56.80;;;;;;5052140;28;20025;-67
2023/07/14 08:56:11;;;;;;;4.35;1.90;;;23.40;55.90;;;;;;5051153;28;20060;-67
2023/07/14 08:58:40;;;;;;;3.13;1.90;;;23.40;55.70;;;;;;5050213;28;20017;-68
2023/07/14 09:01:19;;;;;;;3.25;1.85;;;23.50;55.90;;;;;;5048993;28;20025;-68
2023/07/14 09:03:50;;;;;;;3.30;1.90;;;23.60;56.00;;;;;;5048426;28;20029;-67
2023/07/14 09:06:35;;;;;;;3.35;1.90;;;23.60;55.90;;;;;;5049261;28;20107;-68
2023/07/14 09:09:02;;;;;;;3.65;2.10;;;23.70;55.90;;;;;;5048408;28;20488;-68
2023/07/14 09:11:57;;;;;;;4.50;2.20;;;23.80;55.80;;;;;;5048956;28;20055;-67
2023/07/14 09:14:48;;;;;;;4.97;2.83;;;23.90;56.00;;;;;;5051661;28;20056;-68
2023/07/14 09:17:27;;;;;;;4.07;2.30;;;23.80;55.40;;;;;;5051294;28;20021;-67
2023/07/14 09:20:26;;;;;;;4.03;2.50;;;23.70;55.70;;;;;;5050390;28;20033;-68
2023/07/14 09:22:55;;;;;;;4.30;2.83;;;23.70;55.50;;;;;;5049376;28;20025;-68
2023/07/14 09:25:30;;;;;;;3.50;2.00;;;23.50;55.30;;;;;;5049453;28;20037;-67
2023/07/14 09:27:56;;;;;;;3.58;2.00;;;23.50;55.60;;;;;;5046224;28;20060;-67
2023/07/14 09:30:26;;;;;;;3.65;2.50;;;23.80;55.50;;;;;;5049704;28;20052;-67
2023/07/14 09:33:03;;;;;;;3.67;2.30;;;23.70;54.70;;;;;;5051081;28;20368;-67
2023/07/14 09:35:29;;;;;;;3.50;2.00;;;23.60;53.80;;;;;;5049467;28;20033;-67
2023/07/14 09:38:04;;;;;;;2.83;1.90;;;23.70;54.80;;;;;;5048216;28;20017;-67
2023/07/14 09:40:36;;;;;;;4.07;2.65;;;23.90;54.70;;;;;;5047447;28;20033;-67
2023/07/14 09:43:03;;;;;;;4.47;2.10;;;23.90;53.40;;;;;;5051341;28;20557;-68
2023/07/14 09:45:34;;;;;;;4.18;2.20;;;24.00;54.00;;;;;;5052249;28;20383;-67
2023/07/14 09:48:23;;;;;;;3.00;1.95;;;24.10;53.70;;;;;;5050919;28;20064;-68
2023/07/14 09:50:54;;;;;;;3.30;2.20;;;24.00;53.00;;;;;;5048766;28;20040;-67
2023/07/14 09:53:20;;;;;;;3.83;2.45;;;24.00;53.00;;;;;;5065346;28;20088;-67
2023/07/14 09:55:52;;;;;;;3.63;1.92;;;24.20;53.20;;;;;;5050470;28;20625;-67
2023/07/14 09:58:21;;;;;;;3.33;1.80;;;24.20;52.80;;;;;;5047190;28;20109;-67
2023/07/14 10:00:49;;;;;;;4.07;2.00;;;24.40;53.00;;;;;;5031452;28;20028;-67
2023/07/14 10:03:16;;;;;;;2.70;1.77;;;24.60;52.90;;;;;;5035895;28;20054;-67
2023/07/14 10:05:52;;;;;;;3.35;1.70;;;24.80;52.30;;;;;;5044399;28;21005;-67
2023/07/14 10:08:46;;;;;;;3.45;1.92;;;24.80;51.80;;;;;;5046057;28;20050;-68
2023/07/14 10:11:17;;;;;;;2.10;1.70;;;24.80;51.50;;;;;;5048113;28;20020;-68
2023/07/14 10:13:50;;;;;;;;;;;24.90;51.60;;;;;;5052326;28;20480;-68
2023/07/14 10:16:16;;;;;;;2.65;1.83;;;25.00;51.90;;;;;;5052529;28;19917;-68
2023/07/14 10:18:46;;;;;;;3.72;2.30;;;25.30;52.10;;;;;;5052643;28;20033;-68
2023/07/14 10:21:21;;;;;;;4.07;2.13;;;25.10;50.80;;;;;;5050157;28;20543;-68
2023/07/14 10:24:02;;;;;;;5.10;2.00;;;25.10;51.30;;;;;;5048107;28;20040;-68
2023/07/14 10:26:34;;;;;;;6.00;2.27;;;25.20;51.40;;;;;;5049963;28;20103;-68
2023/07/14 10:29:02;;;;;;;3.35;1.90;;;25.10;51.40;;;;;;5034164;28;20460;-68
2023/07/14 10:31:42;;;;;;;3.95;1.98;;;25.10;51.10;;;;;;5048307;28;20028;-68
2023/07/14 10:34:38;;;;;;;3.45;1.80;;;25.10;51.10;;;;;;5043806;28;20048;-68
2023/07/14 10:37:16;;;;;;;2.97;1.90;;;25.20;51.40;;;;;;5049231;28;20040;-67
2023/07/14 10:39:47;;;;;;;3.70;1.92;;;25.40;51.60;;;;;;5049932;28;20108;-68
2023/07/14 10:42:21;;;;;;;2.67;1.80;;;25.60;51.30;;;;;;5048571;28;20738;-68
2023/07/14 10:44:48;;;;;;;3.13;2.03;;;25.70;50.80;;;;;;5048655;28;20484;-68
2023/07/14 10:47:45;;;;;;;3.05;1.70;;;25.50;50.50;;;;;;5051411;28;20024;-68
2023/07/14 10:50:17;;;;;;;2.40;1.60;;;25.30;50.90;;;;;;4996426;28;20076;-67
2023/07/14 10:52:52;;;;;;;2.17;1.67;;;25.50;51.10;;;;;;5046493;28;20391;-67
2023/07/14 10:55:27;;;;;;;2.63;1.73;;;25.60;50.80;;;;;;5047072;28;20021;-68
2023/07/14 10:58:00;;;;;;;3.17;1.85;;;25.60;50.90;;;;;;5048021;28;20025;-67
2023/07/14 11:00:50;;;;;;;2.67;1.73;;;25.60;50.80;;;;;;5048777;28;20545;-67
2023/07/14 11:03:26;;;;;;;3.25;1.85;;;25.50;50.60;;;;;;5048429;28;20017;-67
2023/07/14 11:06:13;;;;;;;2.85;1.75;;;25.50;50.60;;;;;;5028495;28;20036;-68
2023/07/14 11:08:39;;;;;;;2.15;1.58;;;25.40;51.20;;;;;;5046670;28;20049;-68
2023/07/14 11:11:37;;;;;;;3.20;1.73;;;25.50;51.40;;;;;;5047072;28;20563;-67
2023/07/14 11:14:02;;;;;;;2.70;1.70;;;25.50;51.30;;;;;;5031310;28;20038;-68
2023/07/14 11:16:36;;;;;;;3.45;1.52;;;25.40;51.10;;;;;;5050940;28;21485;-67
2023/07/14 11:19:08;;;;;;;2.85;1.63;;;25.40;51.20;;;;;;5045800;28;20399;-68
2023/07/14 11:21:54;;;;;;;2.78;1.48;;;25.50;51.30;;;;;;5051021;28;20463;-68
2023/07/14 11:24:38;;;;;;;3.53;1.80;;;25.60;51.50;;;;;;5049315;28;20541;-68
2023/07/14 11:27:22;;;;;;;2.70;1.80;;;25.50;51.20;;;;;;5048714;28;20021;-68
2023/07/14 11:29:58;;;;;;;2.17;1.70;;;25.30;51.50;;;;;;5044837;28;20025;-67
2023/07/14 11:32:36;;;;;;;2.15;1.67;;;25.30;51.70;;;;;;5029765;28;20685;-67
2023/07/14 11:35:24;;;;;;;2.28;1.58;;;25.20;51.30;;;;;;5049584;28;20383;-68
2023/07/14 11:38:23;;;;;;;1.92;1.60;;;25.20;51.10;;;;;;5046702;28;20533;-68
2023/07/14 11:40:52;;;;;;;3.60;1.70;;;25.10;51.30;;;;;;5042609;28;20056;-68
2023/07/14 11:43:24;;;;;;;3.15;1.70;;;25.10;51.60;;;;;;5046402;28;20037;-67
2023/07/14 11:46:02;;;;;;;2.30;1.63;;;25.10;51.70;;;;;;5046520;28;20044;-68
2023/07/14 11:48:45;;;;;;;3.20;2.00;;;25.20;51.90;;;;;;5044239;28;20029;-68
2023/07/14 11:51:15;;;;;;;3.75;1.90;;;25.30;51.60;;;;;;5048694;28;20528;-67
2023/07/14 11:54:02;;;;;;;2.58;1.90;;;25.30;51.60;;;;;;5048280;28;20033;-67
2023/07/14 11:56:34;;;;;;;4.30;1.83;;;25.30;51.60;;;;;;5050887;28;20021;-68
2023/07/14 11:59:20;;;;;;;4.57;2.33;;;25.50;51.70;;;;;;5045857;28;20029;-68
2023/07/14 12:01:51;;;;;;;2.60;2.22;;;25.40;51.00;;;;;;5049769;28;20495;-68
2023/07/14 12:04:24;;;;;;;2.78;1.55;;;25.10;51.10;;;;;;5052084;28;20017;-68
2023/07/14 12:07:10;;;;;;;4.82;2.20;;;25.20;51.70;;;;;;5026710;28;20029;-68
2023/07/14 12:09:57;;;;;;;4.15;2.65;;;25.10;51.70;;;;;;5013924;28;20036;-68
2023/07/14 12:12:23;;;;;;;3.33;2.20;;;25.00;52.20;;;;;;5046122;28;20449;-68
2023/07/14 12:14:50;;;;;;;3.85;2.15;;;24.90;53.00;;;;;;5048200;28;20443;-68
2023/07/14 12:17:38;;;;;;;3.10;2.28;;;24.60;52.60;;;;;;5024601;28;20029;-68
2023/07/14 12:20:29;;;;;;;2.55;1.77;;;24.80;52.80;;;;;;5045697;28;20403;-68
2023/07/14 12:23:16;;;;;;;2.72;1.85;;;25.00;52.90;;;;;;5046577;28;20017;-68
2023/07/14 12:25:48;;;;;;;3.40;1.92;;;25.10;52.60;;;;;;5046383;28;20384;-68
2023/07/14 12:28:36;;;;;;;3.40;2.17;;;25.20;52.60;;;;;;5048074;28;20029;-68
2023/07/14 12:31:11;;;;;;;3.58;2.40;;;25.40;52.20;;;;;;5049404;28;20072;-68
2023/07/14 12:33:37;;;;;;;5.07;2.20;;;25.50;51.60;;;;;;5047672;28;20033;-68
2023/07/14 12:36:04;;;;;;;2.90;1.88;;;25.70;51.60;;;;;;5046106;28;20572;-68
2023/07/14 12:38:30;;;;;;;2.85;1.85;;;25.90;51.40;;;;;;5047941;28;20037;-68
2023/07/14 12:40:57;;;;;;;4.57;2.42;;;26.20;51.10;;;;;;5047425;28;20070;-68
2023/07/14 12:43:41;;;;;;;3.70;2.13;;;26.30;51.30;;;;;;5045120;28;20096;-68
2023/07/14 12:46:27;;;;;;;4.75;2.40;;;26.50;50.90;;;;;;5046004;28;20434;-68
2023/07/14 12:49:17;;;;;;;3.15;2.10;;;26.60;50.50;;;;;;5048548;28;20491;-68
2023/07/14 12:51:43;;;;;;;3.88;2.13;;;26.80;50.40;;;;;;5047851;28;20036;-68
2023/07/14 12:54:27;;;;;;;3.45;1.70;;;26.70;50.30;;;;;;5044160;28;20451;-67
2023/07/14 12:56:55;;;;;;;2.80;1.88;;;26.80;50.40;;;;;;5049115;28;20098;-68
2023/07/14 12:59:21;;;;;;;2.83;1.85;;;27.00;49.80;;;;;;5048415;28;20112;-68
2023/07/14 13:01:48;;;;;;;2.15;1.50;;;27.10;49.00;;;;;;5046070;28;20013;-68
2023/07/14 13:04:16;;;;;;;2.03;1.60;;;27.30;49.00;;;;;;5045375;28;20032;-68
2023/07/14 13:06:44;;;;;;;4.38;1.95;;;27.60;48.90;;;;;;5049066;28;20021;-68
2023/07/14 13:09:29;;;;;;;2.40;1.48;;;27.80;48.30;;;;;;5030165;28;20070;-68